Terminal Aerodrome Forecast
Issued by NWS Norman, OK

Home | Current Version | Previous Version | Text Only | Print | Product List | Glossary On
Versions: 1 2 3 4 5 6 7 8 9 10 11 12 13 14 15 16 17 18 19 20 21 22 23 24 25 26 27 28 29 30 31 32 33 34 35 36 37 38 39 40 41 42 43 44 45 46 47 48
771
FTUS44 KOUN 211744
TAFOKC
TAF
KOKC 211744Z 2118/2218 02015G20KT 6SM -FZRAPL BR OVC015
      TEMPO 2119/2123 2SM -FZRAPL BR OVC008
     FM220500 36010KT 5SM -FZDZ BR OVC006
     FM221400 36005KT 6SM -FZRA BR OVC008=

USA.gov is the U.S. government's official web portal to all federal, state and local government web resources and services.